OEBA/ABT METAR and TAF weather

Enter ICAO airport designator
Station Type Date Time Source
OEBA METAR 2021/05/12 04:00 UTC NOAA

OEBA 120400Z 26005KT 9999 FEW030 25/03 Q1019 NOSIG


Station Type Date Time Source
OEBA Decoded METAR 2021/05/12 04:00 UTC NOAA

Al Baha, Saudi Arabia (OEBA) 20-18N 041-38E 1662M
May 12, 2021 - 12:00 AM EDT / 2021.05.12 0400 UTC
Wind: from the W (260 degrees) at 6 MPH (5 KT):0
Visibility: greater than 7 mile(s):0
Sky conditions: mostly clear
Temperature: 77 F (25 C)
Dew Point: 37 F (3 C)
Relative Humidity: 23%
Pressure (altimeter): 30.09 in. Hg (1019 hPa)
ob: OEBA 120400Z 26005KT 9999 FEW030 25/03 Q1019 NOSIG
cycle: 4

Station Type Date Time Source
OEBA TAF 2021/05/11 12:09 UTC NOAA

TAF OEBA 111100Z 1112/1218 22014KT 9999 SCT030
TEMPO 1112/1118 6000 TSRA FEW025CB BKN030
BECMG 1118/1120 VRB03KT

Example: see airport list